sensor_id;sensor_type;location;lat;lon;timestamp;P1;durP1;ratioP1;P2;durP2;ratioP2
3171;SDS011;1597;51.572;6.992;2023-07-13T00:02:02;4.70;;;2.70;;
3171;SDS011;1597;51.572;6.992;2023-07-13T00:04:28;4.00;;;2.67;;
3171;SDS011;1597;51.572;6.992;2023-07-13T00:06:54;4.03;;;2.63;;
3171;SDS011;1597;51.572;6.992;2023-07-13T00:09:20;5.30;;;2.37;;
3171;SDS011;1597;51.572;6.992;2023-07-13T00:11:50;3.53;;;2.47;;
3171;SDS011;1597;51.572;6.992;2023-07-13T00:14:21;3.67;;;2.10;;
3171;SDS011;1597;51.572;6.992;2023-07-13T00:16:48;3.80;;;2.63;;
3171;SDS011;1597;51.572;6.992;2023-07-13T00:19:14;4.10;;;2.27;;
3171;SDS011;1597;51.572;6.992;2023-07-13T00:21:40;6.87;;;1.80;;
3171;SDS011;1597;51.572;6.992;2023-07-13T00:24:08;4.90;;;2.30;;
3171;SDS011;1597;51.572;6.992;2023-07-13T00:26:38;3.17;;;2.40;;
3171;SDS011;1597;51.572;6.992;2023-07-13T00:29:04;4.10;;;2.33;;
3171;SDS011;1597;51.572;6.992;2023-07-13T00:31:34;5.40;;;2.20;;
3171;SDS011;1597;51.572;6.992;2023-07-13T00:34:01;7.47;;;2.20;;
3171;SDS011;1597;51.572;6.992;2023-07-13T00:36:27;5.77;;;2.53;;
3171;SDS011;1597;51.572;6.992;2023-07-13T00:38:54;2.63;;;1.90;;
3171;SDS011;1597;51.572;6.992;2023-07-13T00:41:20;6.00;;;2.40;;
3171;SDS011;1597;51.572;6.992;2023-07-13T00:43:46;4.33;;;2.20;;
3171;SDS011;1597;51.572;6.992;2023-07-13T00:46:23;4.37;;;2.17;;
3171;SDS011;1597;51.572;6.992;2023-07-13T00:48:54;5.70;;;2.23;;
3171;SDS011;1597;51.572;6.992;2023-07-13T00:51:26;4.73;;;2.37;;
3171;SDS011;1597;51.572;6.992;2023-07-13T00:54:00;3.83;;;1.83;;
3171;SDS011;1597;51.572;6.992;2023-07-13T00:56:32;3.73;;;2.33;;
3171;SDS011;1597;51.572;6.992;2023-07-13T00:58:59;4.40;;;2.10;;
3171;SDS011;1597;51.572;6.992;2023-07-13T01:01:28;5.50;;;2.93;;
3171;SDS011;1597;51.572;6.992;2023-07-13T01:03:54;4.77;;;2.50;;
3171;SDS011;1597;51.572;6.992;2023-07-13T01:06:20;2.57;;;2.37;;
3171;SDS011;1597;51.572;6.992;2023-07-13T01:08:46;3.47;;;2.00;;
3171;SDS011;1597;51.572;6.992;2023-07-13T01:11:12;7.23;;;2.90;;
3171;SDS011;1597;51.572;6.992;2023-07-13T01:13:46;3.60;;;1.90;;
3171;SDS011;1597;51.572;6.992;2023-07-13T01:16:13;4.10;;;2.33;;
3171;SDS011;1597;51.572;6.992;2023-07-13T01:18:48;4.00;;;2.37;;
3171;SDS011;1597;51.572;6.992;2023-07-13T01:21:14;4.50;;;2.07;;
3171;SDS011;1597;51.572;6.992;2023-07-13T01:23:40;6.33;;;2.67;;
3171;SDS011;1597;51.572;6.992;2023-07-13T01:26:06;3.97;;;2.33;;
3171;SDS011;1597;51.572;6.992;2023-07-13T01:28:32;2.80;;;2.30;;
3171;SDS011;1597;51.572;6.992;2023-07-13T01:31:02;6.27;;;2.60;;
3171;SDS011;1597;51.572;6.992;2023-07-13T01:33:29;4.87;;;2.10;;
3171;SDS011;1597;51.572;6.992;2023-07-13T01:35:56;6.70;;;2.00;;
3171;SDS011;1597;51.572;6.992;2023-07-13T01:38:23;5.20;;;2.43;;
3171;SDS011;1597;51.572;6.992;2023-07-13T01:40:50;7.87;;;2.97;;
3171;SDS011;1597;51.572;6.992;2023-07-13T01:43:17;3.60;;;1.93;;
3171;SDS011;1597;51.572;6.992;2023-07-13T01:45:44;8.93;;;3.07;;
3171;SDS011;1597;51.572;6.992;2023-07-13T01:48:12;2.23;;;2.03;;
3171;SDS011;1597;51.572;6.992;2023-07-13T01:50:38;7.43;;;2.10;;
3171;SDS011;1597;51.572;6.992;2023-07-13T01:53:05;6.83;;;3.00;;
3171;SDS011;1597;51.572;6.992;2023-07-13T01:55:31;3.73;;;2.43;;
3171;SDS011;1597;51.572;6.992;2023-07-13T01:57:57;4.50;;;2.30;;
3171;SDS011;1597;51.572;6.992;2023-07-13T02:00:23;4.43;;;2.10;;
3171;SDS011;1597;51.572;6.992;2023-07-13T02:02:50;4.57;;;2.27;;
3171;SDS011;1597;51.572;6.992;2023-07-13T02:05:16;4.80;;;1.93;;
3171;SDS011;1597;51.572;6.992;2023-07-13T02:07:42;5.10;;;2.23;;
3171;SDS011;1597;51.572;6.992;2023-07-13T02:10:09;4.83;;;2.10;;
3171;SDS011;1597;51.572;6.992;2023-07-13T02:12:36;3.47;;;2.23;;
3171;SDS011;1597;51.572;6.992;2023-07-13T02:15:03;6.57;;;2.10;;
3171;SDS011;1597;51.572;6.992;2023-07-13T02:17:30;3.30;;;1.90;;
3171;SDS011;1597;51.572;6.992;2023-07-13T02:19:57;3.80;;;2.03;;
3171;SDS011;1597;51.572;6.992;2023-07-13T02:22:23;6.40;;;2.23;;
3171;SDS011;1597;51.572;6.992;2023-07-13T02:24:49;4.10;;;1.80;;
3171;SDS011;1597;51.572;6.992;2023-07-13T02:27:15;2.63;;;2.10;;
3171;SDS011;1597;51.572;6.992;2023-07-13T02:29:41;2.83;;;1.87;;
3171;SDS011;1597;51.572;6.992;2023-07-13T02:32:07;4.87;;;2.10;;
3171;SDS011;1597;51.572;6.992;2023-07-13T02:34:37;5.40;;;2.50;;
3171;SDS011;1597;51.572;6.992;2023-07-13T02:37:02;5.90;;;2.47;;
3171;SDS011;1597;51.572;6.992;2023-07-13T02:39:29;7.03;;;2.70;;
3171;SDS011;1597;51.572;6.992;2023-07-13T02:41:58;2.10;;;1.70;;
3171;SDS011;1597;51.572;6.992;2023-07-13T02:44:25;3.10;;;1.97;;
3171;SDS011;1597;51.572;6.992;2023-07-13T02:46:51;4.60;;;2.80;;
3171;SDS011;1597;51.572;6.992;2023-07-13T02:49:17;5.70;;;1.87;;
3171;SDS011;1597;51.572;6.992;2023-07-13T02:51:45;4.33;;;2.43;;
3171;SDS011;1597;51.572;6.992;2023-07-13T02:54:10;6.43;;;2.27;;
3171;SDS011;1597;51.572;6.992;2023-07-13T02:56:38;8.33;;;2.53;;
3171;SDS011;1597;51.572;6.992;2023-07-13T02:59:06;4.77;;;2.30;;
3171;SDS011;1597;51.572;6.992;2023-07-13T03:01:32;4.57;;;2.20;;
3171;SDS011;1597;51.572;6.992;2023-07-13T03:04:00;7.87;;;2.60;;
3171;SDS011;1597;51.572;6.992;2023-07-13T03:06:26;3.37;;;1.93;;
3171;SDS011;1597;51.572;6.992;2023-07-13T03:08:55;7.07;;;2.43;;
3171;SDS011;1597;51.572;6.992;2023-07-13T03:11:21;2.20;;;2.00;;
3171;SDS011;1597;51.572;6.992;2023-07-13T03:13:47;2.43;;;1.40;;
3171;SDS011;1597;51.572;6.992;2023-07-13T03:16:14;3.53;;;2.03;;
3171;SDS011;1597;51.572;6.992;2023-07-13T03:18:41;9.63;;;2.93;;
3171;SDS011;1597;51.572;6.992;2023-07-13T03:21:07;3.07;;;1.90;;
3171;SDS011;1597;51.572;6.992;2023-07-13T03:23:35;3.87;;;2.63;;
3171;SDS011;1597;51.572;6.992;2023-07-13T03:28:34;7.17;;;2.10;;
3171;SDS011;1597;51.572;6.992;2023-07-13T03:31:04;3.27;;;2.30;;
3171;SDS011;1597;51.572;6.992;2023-07-13T03:33:38;4.63;;;2.60;;
3171;SDS011;1597;51.572;6.992;2023-07-13T03:36:05;5.37;;;1.90;;
3171;SDS011;1597;51.572;6.992;2023-07-13T03:38:34;6.90;;;2.37;;
3171;SDS011;1597;51.572;6.992;2023-07-13T03:41:00;6.00;;;2.00;;
3171;SDS011;1597;51.572;6.992;2023-07-13T03:43:26;4.27;;;2.43;;
3171;SDS011;1597;51.572;6.992;2023-07-13T03:45:52;6.60;;;2.53;;
3171;SDS011;1597;51.572;6.992;2023-07-13T03:48:19;4.13;;;2.13;;
3171;SDS011;1597;51.572;6.992;2023-07-13T03:50:44;3.80;;;2.20;;
3171;SDS011;1597;51.572;6.992;2023-07-13T03:53:12;4.83;;;2.50;;
3171;SDS011;1597;51.572;6.992;2023-07-13T03:55:38;3.70;;;2.30;;
3171;SDS011;1597;51.572;6.992;2023-07-13T04:01:01;5.83;;;2.37;;
3171;SDS011;1597;51.572;6.992;2023-07-13T04:03:29;6.70;;;2.93;;
3171;SDS011;1597;51.572;6.992;2023-07-13T04:05:57;7.43;;;2.63;;
3171;SDS011;1597;51.572;6.992;2023-07-13T04:08:29;5.83;;;2.77;;
3171;SDS011;1597;51.572;6.992;2023-07-13T04:10:59;6.43;;;2.50;;
3171;SDS011;1597;51.572;6.992;2023-07-13T04:13:26;2.63;;;2.10;;
3171;SDS011;1597;51.572;6.992;2023-07-13T04:15:53;2.80;;;2.30;;
3171;SDS011;1597;51.572;6.992;2023-07-13T04:18:22;5.47;;;2.30;;
3171;SDS011;1597;51.572;6.992;2023-07-13T04:20:49;4.13;;;2.00;;
3171;SDS011;1597;51.572;6.992;2023-07-13T04:23:16;8.10;;;2.80;;
3171;SDS011;1597;51.572;6.992;2023-07-13T04:25:43;7.97;;;2.33;;
3171;SDS011;1597;51.572;6.992;2023-07-13T04:28:11;4.83;;;2.10;;
3171;SDS011;1597;51.572;6.992;2023-07-13T04:30:37;3.73;;;2.43;;
3171;SDS011;1597;51.572;6.992;2023-07-13T04:33:04;3.43;;;2.43;;
3171;SDS011;1597;51.572;6.992;2023-07-13T04:35:30;3.70;;;2.07;;
3171;SDS011;1597;51.572;6.992;2023-07-13T04:37:56;4.60;;;2.20;;
3171;SDS011;1597;51.572;6.992;2023-07-13T04:40:22;3.87;;;2.57;;
3171;SDS011;1597;51.572;6.992;2023-07-13T04:42:48;6.87;;;2.30;;
3171;SDS011;1597;51.572;6.992;2023-07-13T04:45:14;4.30;;;2.33;;
3171;SDS011;1597;51.572;6.992;2023-07-13T04:47:41;4.80;;;2.83;;
3171;SDS011;1597;51.572;6.992;2023-07-13T04:50:07;5.97;;;2.40;;
3171;SDS011;1597;51.572;6.992;2023-07-13T04:52:36;8.70;;;3.23;;
3171;SDS011;1597;51.572;6.992;2023-07-13T04:55:02;6.20;;;2.67;;
3171;SDS011;1597;51.572;6.992;2023-07-13T04:57:29;4.43;;;2.30;;
3171;SDS011;1597;51.572;6.992;2023-07-13T04:59:55;3.07;;;1.97;;
3171;SDS011;1597;51.572;6.992;2023-07-13T05:02:21;4.50;;;2.30;;
3171;SDS011;1597;51.572;6.992;2023-07-13T05:04:48;6.00;;;2.13;;
3171;SDS011;1597;51.572;6.992;2023-07-13T05:07:14;4.63;;;2.40;;
3171;SDS011;1597;51.572;6.992;2023-07-13T05:09:41;6.03;;;3.03;;
3171;SDS011;1597;51.572;6.992;2023-07-13T05:12:08;7.23;;;2.80;;
3171;SDS011;1597;51.572;6.992;2023-07-13T05:14:35;6.40;;;2.63;;
3171;SDS011;1597;51.572;6.992;2023-07-13T05:17:00;6.63;;;2.90;;
3171;SDS011;1597;51.572;6.992;2023-07-13T05:19:26;9.97;;;2.70;;
3171;SDS011;1597;51.572;6.992;2023-07-13T05:21:53;4.80;;;2.60;;
3171;SDS011;1597;51.572;6.992;2023-07-13T05:24:19;5.37;;;3.23;;
3171;SDS011;1597;51.572;6.992;2023-07-13T05:26:44;6.33;;;3.63;;
3171;SDS011;1597;51.572;6.992;2023-07-13T05:29:10;8.30;;;2.50;;
3171;SDS011;1597;51.572;6.992;2023-07-13T05:31:36;11.57;;;2.90;;
3171;SDS011;1597;51.572;6.992;2023-07-13T05:34:02;12.83;;;3.80;;
3171;SDS011;1597;51.572;6.992;2023-07-13T05:36:30;8.20;;;3.17;;
3171;SDS011;1597;51.572;6.992;2023-07-13T05:38:57;9.37;;;3.00;;
3171;SDS011;1597;51.572;6.992;2023-07-13T05:41:25;6.03;;;2.90;;
3171;SDS011;1597;51.572;6.992;2023-07-13T05:43:50;4.43;;;3.17;;
3171;SDS011;1597;51.572;6.992;2023-07-13T05:46:16;7.33;;;3.30;;
3171;SDS011;1597;51.572;6.992;2023-07-13T05:48:42;8.20;;;3.23;;
3171;SDS011;1597;51.572;6.992;2023-07-13T05:51:08;5.87;;;3.07;;
3171;SDS011;1597;51.572;6.992;2023-07-13T05:53:34;7.10;;;3.47;;
3171;SDS011;1597;51.572;6.992;2023-07-13T05:56:01;6.03;;;3.30;;
3171;SDS011;1597;51.572;6.992;2023-07-13T05:58:26;7.20;;;3.67;;
3171;SDS011;1597;51.572;6.992;2023-07-13T06:01:03;10.63;;;4.50;;
3171;SDS011;1597;51.572;6.992;2023-07-13T06:03:33;10.80;;;4.20;;
3171;SDS011;1597;51.572;6.992;2023-07-13T06:05:59;12.77;;;6.37;;
3171;SDS011;1597;51.572;6.992;2023-07-13T06:08:26;11.70;;;4.93;;
3171;SDS011;1597;51.572;6.992;2023-07-13T06:10:52;8.63;;;4.17;;
3171;SDS011;1597;51.572;6.992;2023-07-13T06:13:18;4.80;;;3.53;;
3171;SDS011;1597;51.572;6.992;2023-07-13T06:15:48;12.87;;;5.50;;
3171;SDS011;1597;51.572;6.992;2023-07-13T06:18:15;16.50;;;5.30;;
3171;SDS011;1597;51.572;6.992;2023-07-13T06:20:41;9.70;;;4.10;;
3171;SDS011;1597;51.572;6.992;2023-07-13T06:23:07;11.00;;;5.27;;
3171;SDS011;1597;51.572;6.992;2023-07-13T06:25:33;6.90;;;4.00;;
3171;SDS011;1597;51.572;6.992;2023-07-13T06:27:59;8.93;;;4.40;;
3171;SDS011;1597;51.572;6.992;2023-07-13T06:30:25;8.43;;;4.90;;
3171;SDS011;1597;51.572;6.992;2023-07-13T06:32:52;11.13;;;5.23;;
3171;SDS011;1597;51.572;6.992;2023-07-13T06:35:19;8.30;;;4.47;;
3171;SDS011;1597;51.572;6.992;2023-07-13T06:37:45;10.17;;;4.67;;
3171;SDS011;1597;51.572;6.992;2023-07-13T06:40:12;8.73;;;4.60;;
3171;SDS011;1597;51.572;6.992;2023-07-13T06:42:38;10.30;;;4.60;;
3171;SDS011;1597;51.572;6.992;2023-07-13T06:45:04;10.23;;;5.77;;
3171;SDS011;1597;51.572;6.992;2023-07-13T06:47:31;9.10;;;5.40;;
3171;SDS011;1597;51.572;6.992;2023-07-13T06:49:57;17.37;;;5.97;;
3171;SDS011;1597;51.572;6.992;2023-07-13T06:52:24;12.40;;;6.23;;
3171;SDS011;1597;51.572;6.992;2023-07-13T06:54:50;9.83;;;6.40;;
3171;SDS011;1597;51.572;6.992;2023-07-13T06:57:15;12.63;;;6.90;;
3171;SDS011;1597;51.572;6.992;2023-07-13T06:59:41;12.30;;;6.60;;
3171;SDS011;1597;51.572;6.992;2023-07-13T07:02:08;12.30;;;6.63;;
3171;SDS011;1597;51.572;6.992;2023-07-13T07:04:35;19.07;;;9.70;;
3171;SDS011;1597;51.572;6.992;2023-07-13T07:07:01;12.47;;;9.07;;
3171;SDS011;1597;51.572;6.992;2023-07-13T07:09:27;19.10;;;15.47;;
3171;SDS011;1597;51.572;6.992;2023-07-13T07:11:55;19.47;;;17.27;;
3171;SDS011;1597;51.572;6.992;2023-07-13T07:14:21;22.57;;;14.00;;
3171;SDS011;1597;51.572;6.992;2023-07-13T07:16:47;22.47;;;14.00;;
3171;SDS011;1597;51.572;6.992;2023-07-13T07:19:13;15.60;;;11.33;;
3171;SDS011;1597;51.572;6.992;2023-07-13T07:21:39;15.33;;;10.10;;
3171;SDS011;1597;51.572;6.992;2023-07-13T07:24:05;13.57;;;8.00;;
3171;SDS011;1597;51.572;6.992;2023-07-13T07:26:32;9.67;;;6.13;;
3171;SDS011;1597;51.572;6.992;2023-07-13T07:28:58;16.00;;;7.83;;
3171;SDS011;1597;51.572;6.992;2023-07-13T07:31:24;9.20;;;5.90;;
3171;SDS011;1597;51.572;6.992;2023-07-13T07:33:50;11.27;;;7.63;;
3171;SDS011;1597;51.572;6.992;2023-07-13T07:36:16;12.93;;;7.50;;
3171;SDS011;1597;51.572;6.992;2023-07-13T07:38:43;9.97;;;6.10;;
3171;SDS011;1597;51.572;6.992;2023-07-13T07:41:09;10.40;;;7.17;;
3171;SDS011;1597;51.572;6.992;2023-07-13T07:43:35;14.70;;;5.80;;
3171;SDS011;1597;51.572;6.992;2023-07-13T07:46:02;14.10;;;5.60;;
3171;SDS011;1597;51.572;6.992;2023-07-13T07:48:28;8.47;;;5.17;;
3171;SDS011;1597;51.572;6.992;2023-07-13T07:50:54;8.60;;;5.70;;
3171;SDS011;1597;51.572;6.992;2023-07-13T07:53:20;7.50;;;5.77;;
3171;SDS011;1597;51.572;6.992;2023-07-13T07:55:46;12.77;;;5.50;;
3171;SDS011;1597;51.572;6.992;2023-07-13T07:58:13;7.60;;;5.33;;
3171;SDS011;1597;51.572;6.992;2023-07-13T08:00:40;10.93;;;5.90;;
3171;SDS011;1597;51.572;6.992;2023-07-13T08:03:06;12.47;;;5.60;;
3171;SDS011;1597;51.572;6.992;2023-07-13T08:05:34;6.60;;;6.00;;
3171;SDS011;1597;51.572;6.992;2023-07-13T08:08:02;10.00;;;5.87;;
3171;SDS011;1597;51.572;6.992;2023-07-13T08:10:28;7.07;;;4.97;;
3171;SDS011;1597;51.572;6.992;2023-07-13T08:12:54;8.93;;;6.53;;
3171;SDS011;1597;51.572;6.992;2023-07-13T08:15:21;5.23;;;4.63;;
3171;SDS011;1597;51.572;6.992;2023-07-13T08:17:47;7.97;;;5.30;;
3171;SDS011;1597;51.572;6.992;2023-07-13T08:20:16;13.70;;;4.20;;
3171;SDS011;1597;51.572;6.992;2023-07-13T08:22:42;5.43;;;4.70;;
3171;SDS011;1597;51.572;6.992;2023-07-13T08:25:09;9.97;;;5.87;;
3171;SDS011;1597;51.572;6.992;2023-07-13T08:27:34;10.50;;;6.17;;
3171;SDS011;1597;51.572;6.992;2023-07-13T08:30:00;6.27;;;4.70;;
3171;SDS011;1597;51.572;6.992;2023-07-13T08:32:27;9.53;;;6.00;;
3171;SDS011;1597;51.572;6.992;2023-07-13T08:34:52;7.80;;;5.33;;
3171;SDS011;1597;51.572;6.992;2023-07-13T08:37:19;7.60;;;5.40;;
3171;SDS011;1597;51.572;6.992;2023-07-13T08:39:45;12.20;;;5.57;;
3171;SDS011;1597;51.572;6.992;2023-07-13T08:42:14;7.23;;;5.17;;
3171;SDS011;1597;51.572;6.992;2023-07-13T08:47:46;6.70;;;4.47;;
3171;SDS011;1597;51.572;6.992;2023-07-13T08:50:19;10.13;;;6.27;;
3171;SDS011;1597;51.572;6.992;2023-07-13T08:52:52;7.33;;;4.83;;
3171;SDS011;1597;51.572;6.992;2023-07-13T08:55:28;10.63;;;5.37;;
3171;SDS011;1597;51.572;6.992;2023-07-13T08:58:06;9.27;;;5.10;;
3171;SDS011;1597;51.572;6.992;2023-07-13T09:00:45;7.17;;;4.60;;
3171;SDS011;1597;51.572;6.992;2023-07-13T09:04:21;6.90;;;4.80;;
3171;SDS011;1597;51.572;6.992;2023-07-13T09:17:57;10.23;;;5.03;;
3171;SDS011;1597;51.572;6.992;2023-07-13T09:20:42;6.40;;;5.10;;
3171;SDS011;1597;51.572;6.992;2023-07-13T09:23:40;7.87;;;4.63;;
3171;SDS011;1597;51.572;6.992;2023-07-13T09:26:11;8.73;;;5.30;;
3171;SDS011;1597;51.572;6.992;2023-07-13T09:28:48;11.33;;;5.70;;
3171;SDS011;1597;51.572;6.992;2023-07-13T09:31:44;8.80;;;4.93;;
3171;SDS011;1597;51.572;6.992;2023-07-13T09:34:17;6.00;;;4.70;;
3171;SDS011;1597;51.572;6.992;2023-07-13T09:36:44;6.30;;;4.80;;
3171;SDS011;1597;51.572;6.992;2023-07-13T09:39:13;6.63;;;4.00;;
3171;SDS011;1597;51.572;6.992;2023-07-13T09:44:37;10.30;;;8.00;;
3171;SDS011;1597;51.572;6.992;2023-07-13T09:47:18;5.40;;;4.40;;
3171;SDS011;1597;51.572;6.992;2023-07-13T09:49:48;8.93;;;4.87;;
3171;SDS011;1597;51.572;6.992;2023-07-13T09:52:25;6.10;;;4.83;;
3171;SDS011;1597;51.572;6.992;2023-07-13T09:54:53;8.70;;;4.17;;
3171;SDS011;1597;51.572;6.992;2023-07-13T09:57:25;5.97;;;5.10;;
3171;SDS011;1597;51.572;6.992;2023-07-13T09:59:53;9.67;;;7.60;;
3171;SDS011;1597;51.572;6.992;2023-07-13T10:02:31;6.93;;;4.70;;
3171;SDS011;1597;51.572;6.992;2023-07-13T10:05:11;5.00;;;4.60;;
3171;SDS011;1597;51.572;6.992;2023-07-13T10:07:44;7.63;;;5.77;;
3171;SDS011;1597;51.572;6.992;2023-07-13T10:10:15;6.87;;;5.23;;
3171;SDS011;1597;51.572;6.992;2023-07-13T10:12:48;8.70;;;5.87;;
3171;SDS011;1597;51.572;6.992;2023-07-13T10:15:18;6.40;;;5.80;;
3171;SDS011;1597;51.572;6.992;2023-07-13T10:17:48;6.53;;;4.73;;
3171;SDS011;1597;51.572;6.992;2023-07-13T10:20:16;10.80;;;6.67;;
3171;SDS011;1597;51.572;6.992;2023-07-13T10:25:27;12.03;;;5.57;;
3171;SDS011;1597;51.572;6.992;2023-07-13T10:28:25;9.90;;;5.20;;
3171;SDS011;1597;51.572;6.992;2023-07-13T10:30:58;7.07;;;5.00;;
3171;SDS011;1597;51.572;6.992;2023-07-13T10:33:26;10.40;;;5.20;;
3171;SDS011;1597;51.572;6.992;2023-07-13T10:35:54;10.17;;;5.53;;
3171;SDS011;1597;51.572;6.992;2023-07-13T10:38:54;6.77;;;4.73;;
3171;SDS011;1597;51.572;6.992;2023-07-13T10:41:23;12.90;;;4.50;;
3171;SDS011;1597;51.572;6.992;2023-07-13T10:43:51;6.47;;;4.90;;
3171;SDS011;1597;51.572;6.992;2023-07-13T10:46:21;6.93;;;5.10;;
3171;SDS011;1597;51.572;6.992;2023-07-13T10:48:57;8.47;;;4.57;;
3171;SDS011;1597;51.572;6.992;2023-07-13T10:51:27;7.13;;;4.10;;
3171;SDS011;1597;51.572;6.992;2023-07-13T10:54:11;5.10;;;3.73;;
3171;SDS011;1597;51.572;6.992;2023-07-13T10:56:43;6.60;;;3.80;;
3171;SDS011;1597;51.572;6.992;2023-07-13T10:59:26;9.03;;;4.60;;
3171;SDS011;1597;51.572;6.992;2023-07-13T11:04:41;6.23;;;4.10;;
3171;SDS011;1597;51.572;6.992;2023-07-13T11:07:20;4.70;;;3.37;;
3171;SDS011;1597;51.572;6.992;2023-07-13T11:09:52;5.40;;;3.47;;
3171;SDS011;1597;51.572;6.992;2023-07-13T11:17:50;6.23;;;3.40;;
3171;SDS011;1597;51.572;6.992;2023-07-13T11:20:36;8.17;;;3.83;;
3171;SDS011;1597;51.572;6.992;2023-07-13T11:25:37;6.50;;;3.03;;
3171;SDS011;1597;51.572;6.992;2023-07-13T11:28:05;4.30;;;3.80;;
3171;SDS011;1597;51.572;6.992;2023-07-13T11:34:09;11.23;;;4.90;;
3171;SDS011;1597;51.572;6.992;2023-07-13T11:36:19;6.87;;;4.23;;
3171;SDS011;1597;51.572;6.992;2023-07-13T11:41:34;6.80;;;4.20;;
3171;SDS011;1597;51.572;6.992;2023-07-13T11:44:20;3.50;;;2.53;;
3171;SDS011;1597;51.572;6.992;2023-07-13T11:46:52;5.93;;;2.83;;
3171;SDS011;1597;51.572;6.992;2023-07-13T11:49:26;7.67;;;3.50;;
3171;SDS011;1597;51.572;6.992;2023-07-13T11:51:55;6.17;;;2.90;;
3171;SDS011;1597;51.572;6.992;2023-07-13T11:54:25;6.63;;;3.30;;
3171;SDS011;1597;51.572;6.992;2023-07-13T11:57:20;10.90;;;3.60;;
3171;SDS011;1597;51.572;6.992;2023-07-13T12:00:03;8.03;;;3.07;;
3171;SDS011;1597;51.572;6.992;2023-07-13T12:02:38;6.20;;;2.83;;
3171;SDS011;1597;51.572;6.992;2023-07-13T12:05:14;6.40;;;3.50;;
3171;SDS011;1597;51.572;6.992;2023-07-13T12:07:42;8.20;;;6.20;;
3171;SDS011;1597;51.572;6.992;2023-07-13T12:12:56;15.37;;;3.87;;
3171;SDS011;1597;51.572;6.992;2023-07-13T12:15:32;4.03;;;2.70;;
3171;SDS011;1597;51.572;6.992;2023-07-13T12:18:15;4.30;;;3.00;;
3171;SDS011;1597;51.572;6.992;2023-07-13T12:20:46;9.30;;;3.60;;
3171;SDS011;1597;51.572;6.992;2023-07-13T12:23:25;7.53;;;3.70;;
3171;SDS011;1597;51.572;6.992;2023-07-13T12:26:01;5.30;;;2.70;;
3171;SDS011;1597;51.572;6.992;2023-07-13T12:28:36;9.93;;;3.40;;
3171;SDS011;1597;51.572;6.992;2023-07-13T12:31:19;6.27;;;3.10;;
3171;SDS011;1597;51.572;6.992;2023-07-13T12:34:03;5.90;;;2.80;;
3171;SDS011;1597;51.572;6.992;2023-07-13T12:36:37;3.83;;;2.63;;
3171;SDS011;1597;51.572;6.992;2023-07-13T12:39:17;4.13;;;2.87;;
3171;SDS011;1597;51.572;6.992;2023-07-13T12:44:56;4.40;;;3.20;;
3171;SDS011;1597;51.572;6.992;2023-07-13T12:47:27;5.80;;;3.60;;
3171;SDS011;1597;51.572;6.992;2023-07-13T12:49:55;4.30;;;3.17;;
3171;SDS011;1597;51.572;6.992;2023-07-13T12:55:05;7.73;;;3.77;;
3171;SDS011;1597;51.572;6.992;2023-07-13T12:57:40;4.90;;;3.03;;
3171;SDS011;1597;51.572;6.992;2023-07-13T13:00:23;3.37;;;3.00;;
3171;SDS011;1597;51.572;6.992;2023-07-13T13:02:54;6.53;;;2.70;;
3171;SDS011;1597;51.572;6.992;2023-07-13T13:05:22;7.63;;;3.60;;
3171;SDS011;1597;51.572;6.992;2023-07-13T13:07:51;6.73;;;3.70;;
3171;SDS011;1597;51.572;6.992;2023-07-13T13:10:17;3.90;;;3.50;;
3171;SDS011;1597;51.572;6.992;2023-07-13T13:12:43;10.07;;;9.10;;
3171;SDS011;1597;51.572;6.992;2023-07-13T13:15:09;4.30;;;3.90;;
3171;SDS011;1597;51.572;6.992;2023-07-13T13:17:37;6.20;;;3.63;;
3171;SDS011;1597;51.572;6.992;2023-07-13T13:20:18;5.50;;;4.30;;
3171;SDS011;1597;51.572;6.992;2023-07-13T13:22:46;4.70;;;4.20;;
3171;SDS011;1597;51.572;6.992;2023-07-13T13:25:12;7.90;;;4.10;;
3171;SDS011;1597;51.572;6.992;2023-07-13T13:27:43;6.23;;;3.80;;
3171;SDS011;1597;51.572;6.992;2023-07-13T13:32:43;8.20;;;4.50;;
3171;SDS011;1597;51.572;6.992;2023-07-13T13:35:16;6.47;;;4.30;;
3171;SDS011;1597;51.572;6.992;2023-07-13T13:37:45;5.33;;;4.27;;
3171;SDS011;1597;51.572;6.992;2023-07-13T13:40:20;4.17;;;3.77;;
3171;SDS011;1597;51.572;6.992;2023-07-13T13:42:48;5.50;;;4.60;;
3171;SDS011;1597;51.572;6.992;2023-07-13T13:45:18;5.67;;;4.33;;
3171;SDS011;1597;51.572;6.992;2023-07-13T13:47:46;7.63;;;4.40;;
3171;SDS011;1597;51.572;6.992;2023-07-13T13:50:16;5.70;;;4.27;;
3171;SDS011;1597;51.572;6.992;2023-07-13T13:52:47;7.53;;;4.23;;
3171;SDS011;1597;51.572;6.992;2023-07-13T13:55:20;5.93;;;4.20;;
3171;SDS011;1597;51.572;6.992;2023-07-13T13:57:49;5.33;;;3.50;;
3171;SDS011;1597;51.572;6.992;2023-07-13T14:00:16;5.10;;;3.80;;
3171;SDS011;1597;51.572;6.992;2023-07-13T14:02:44;6.20;;;4.20;;
3171;SDS011;1597;51.572;6.992;2023-07-13T14:05:15;4.10;;;3.70;;
3171;SDS011;1597;51.572;6.992;2023-07-13T14:07:51;3.73;;;3.33;;
3171;SDS011;1597;51.572;6.992;2023-07-13T14:10:18;5.70;;;4.80;;
3171;SDS011;1597;51.572;6.992;2023-07-13T14:12:45;6.70;;;4.13;;
3171;SDS011;1597;51.572;6.992;2023-07-13T14:15:24;9.40;;;6.17;;
3171;SDS011;1597;51.572;6.992;2023-07-13T14:18:14;7.03;;;5.17;;
3171;SDS011;1597;51.572;6.992;2023-07-13T14:20:44;6.83;;;5.40;;
3171;SDS011;1597;51.572;6.992;2023-07-13T14:23:14;7.73;;;5.83;;
3171;SDS011;1597;51.572;6.992;2023-07-13T14:25:43;4.63;;;4.10;;
3171;SDS011;1597;51.572;6.992;2023-07-13T14:30:52;8.30;;;7.50;;
3171;SDS011;1597;51.572;6.992;2023-07-13T14:33:19;7.00;;;5.23;;
3171;SDS011;1597;51.572;6.992;2023-07-13T14:35:46;10.57;;;9.43;;
3171;SDS011;1597;51.572;6.992;2023-07-13T14:38:13;5.20;;;4.70;;
3171;SDS011;1597;51.572;6.992;2023-07-13T14:40:43;5.70;;;5.20;;
3171;SDS011;1597;51.572;6.992;2023-07-13T14:43:13;6.20;;;5.20;;
3171;SDS011;1597;51.572;6.992;2023-07-13T14:45:43;6.97;;;4.67;;
3171;SDS011;1597;51.572;6.992;2023-07-13T14:48:13;4.73;;;4.33;;
3171;SDS011;1597;51.572;6.992;2023-07-13T14:50:43;9.27;;;6.00;;
3171;SDS011;1597;51.572;6.992;2023-07-13T14:53:11;6.60;;;6.00;;
3171;SDS011;1597;51.572;6.992;2023-07-13T14:55:40;6.33;;;4.77;;
3171;SDS011;1597;51.572;6.992;2023-07-13T14:58:07;5.43;;;4.07;;
3171;SDS011;1597;51.572;6.992;2023-07-13T15:00:37;4.70;;;4.30;;
3171;SDS011;1597;51.572;6.992;2023-07-13T15:03:03;4.30;;;3.57;;
3171;SDS011;1597;51.572;6.992;2023-07-13T15:05:31;8.67;;;3.80;;
3171;SDS011;1597;51.572;6.992;2023-07-13T15:07:59;7.13;;;3.80;;
3171;SDS011;1597;51.572;6.992;2023-07-13T15:10:31;8.67;;;3.93;;
3171;SDS011;1597;51.572;6.992;2023-07-13T15:13:00;4.30;;;3.67;;
3171;SDS011;1597;51.572;6.992;2023-07-13T15:15:52;4.67;;;4.27;;
3171;SDS011;1597;51.572;6.992;2023-07-13T15:18:19;6.43;;;5.87;;
3171;SDS011;1597;51.572;6.992;2023-07-13T15:20:48;4.87;;;4.00;;
3171;SDS011;1597;51.572;6.992;2023-07-13T15:23:21;4.23;;;3.60;;
3171;SDS011;1597;51.572;6.992;2023-07-13T15:25:48;4.27;;;3.57;;
3171;SDS011;1597;51.572;6.992;2023-07-13T15:28:14;5.10;;;3.97;;
3171;SDS011;1597;51.572;6.992;2023-07-13T15:30:41;5.60;;;4.30;;
3171;SDS011;1597;51.572;6.992;2023-07-13T15:33:16;8.03;;;5.27;;
3171;SDS011;1597;51.572;6.992;2023-07-13T15:35:54;9.13;;;5.00;;
3171;SDS011;1597;51.572;6.992;2023-07-13T15:38:24;8.60;;;5.17;;
3171;SDS011;1597;51.572;6.992;2023-07-13T15:40:55;6.97;;;4.30;;
3171;SDS011;1597;51.572;6.992;2023-07-13T15:43:21;6.83;;;4.67;;
3171;SDS011;1597;51.572;6.992;2023-07-13T15:45:48;6.70;;;4.60;;
3171;SDS011;1597;51.572;6.992;2023-07-13T15:48:17;5.90;;;5.13;;
3171;SDS011;1597;51.572;6.992;2023-07-13T15:50:47;4.27;;;3.87;;
3171;SDS011;1597;51.572;6.992;2023-07-13T15:53:29;5.90;;;4.07;;
3171;SDS011;1597;51.572;6.992;2023-07-13T15:55:59;7.70;;;5.30;;
3171;SDS011;1597;51.572;6.992;2023-07-13T15:58:28;4.20;;;3.80;;
3171;SDS011;1597;51.572;6.992;2023-07-13T16:00:56;3.20;;;2.70;;
3171;SDS011;1597;51.572;6.992;2023-07-13T16:03:26;4.63;;;3.20;;
3171;SDS011;1597;51.572;6.992;2023-07-13T16:05:51;5.30;;;3.30;;
3171;SDS011;1597;51.572;6.992;2023-07-13T16:08:26;3.50;;;2.90;;
3171;SDS011;1597;51.572;6.992;2023-07-13T16:10:55;3.60;;;3.00;;
3171;SDS011;1597;51.572;6.992;2023-07-13T16:13:23;4.20;;;3.20;;
3171;SDS011;1597;51.572;6.992;2023-07-13T16:15:51;3.93;;;3.40;;
3171;SDS011;1597;51.572;6.992;2023-07-13T16:18:21;5.87;;;4.30;;
3171;SDS011;1597;51.572;6.992;2023-07-13T16:20:47;5.87;;;4.00;;
3171;SDS011;1597;51.572;6.992;2023-07-13T16:23:15;5.13;;;4.73;;